Time;durP1;ratioP1;P1;durP2;ratioP2;P2;SDS_P1;SDS_P2;PMS_P1;PMS_P2;Temp;Humidity;BMP_temperature;BMP_pressure;BME280_temperature;BME280_humidity;BME280_pressure;Samples;Min_cycle;Max_cycle;Signal;HPM_P1;HPM_P2
2023/03/13 00:00:08;;;;;;;17.90;4.78;;;;;;;8.23;100.00;100128.13;5287670;28;20039;-70
2023/03/13 00:02:39;;;;;;;23.20;4.68;;;;;;;8.28;100.00;100127.75;5279166;28;20405;-70
2023/03/13 00:05:11;;;;;;;20.23;4.75;;;;;;;8.21;100.00;100113.28;5288035;28;20035;-70
2023/03/13 00:07:43;;;;;;;23.15;4.47;;;;;;;8.17;100.00;100106.50;5281288;28;20535;-70
2023/03/13 00:10:14;;;;;;;20.08;4.53;;;;;;;8.22;100.00;100106.97;5282005;28;20040;-70
2023/03/13 00:12:45;;;;;;;18.70;5.03;;;;;;;8.24;100.00;100105.06;5284015;28;20028;-70
2023/03/13 00:15:17;;;;;;;21.50;4.38;;;;;;;8.21;100.00;100100.00;5283521;28;20035;-70
2023/03/13 00:17:48;;;;;;;29.48;5.78;;;;;;;8.17;100.00;100088.75;5284097;28;20478;-69
2023/03/13 00:20:19;;;;;;;20.92;4.57;;;;;;;8.18;100.00;100084.28;5285828;28;20090;-69
2023/03/13 00:22:50;;;;;;;20.27;4.88;;;;;;;8.18;100.00;100081.63;5283184;28;20038;-69
2023/03/13 00:25:22;;;;;;;26.02;5.65;;;;;;;8.21;100.00;100076.06;5281316;28;20525;-69
2023/03/13 00:27:53;;;;;;;20.58;4.78;;;;;;;8.17;100.00;100074.59;5290772;28;20468;-69
2023/03/13 00:30:24;;;;;;;26.35;5.35;;;;;;;8.19;100.00;100067.38;5289776;28;20449;-70
2023/03/13 00:32:55;;;;;;;20.95;5.00;;;;;;;8.16;100.00;100057.00;5289123;28;20036;-69
2023/03/13 00:35:27;;;;;;;28.75;6.43;;;;;;;8.18;100.00;100063.03;5287851;28;20059;-70
2023/03/13 00:37:58;;;;;;;28.92;5.13;;;;;;;8.18;100.00;100041.75;5288152;28;20038;-70
2023/03/13 00:40:29;;;;;;;24.20;6.18;;;;;;;8.19;100.00;100039.00;5286878;28;20036;-70
2023/03/13 00:43:00;;;;;;;30.40;6.05;;;;;;;8.20;100.00;100031.84;5289939;28;20039;-70
2023/03/13 00:45:32;;;;;;;25.20;6.18;;;;;;;8.18;100.00;100034.63;5289470;28;20081;-69
2023/03/13 00:48:03;;;;;;;23.50;5.18;;;;;;;8.20;100.00;100032.69;5291114;28;20138;-70
2023/03/13 00:50:35;;;;;;;28.35;5.80;;;;;;;8.16;100.00;100020.63;5286087;28;20033;-69
2023/03/13 00:53:06;;;;;;;25.85;5.75;;;;;;;8.18;100.00;100009.88;5285234;28;20035;-70
2023/03/13 00:55:37;;;;;;;22.13;5.70;;;;;;;8.22;100.00;100008.66;5283771;28;20030;-69
2023/03/13 00:58:08;;;;;;;25.30;6.75;;;;;;;8.22;100.00;100008.66;5288702;28;20082;-69
2023/03/13 01:00:40;;;;;;;26.92;5.47;;;;;;;8.22;100.00;100004.19;5287248;28;20032;-69
2023/03/13 01:03:11;;;;;;;29.52;6.53;;;;;;;8.26;100.00;100002.13;5300064;28;20039;-69
2023/03/13 01:05:43;;;;;;;24.63;5.93;;;;;;;8.25;100.00;99992.47;5285059;28;20085;-69
2023/03/13 01:08:14;;;;;;;22.38;5.65;;;;;;;8.25;100.00;99993.31;5295784;28;20538;-69
2023/03/13 01:10:45;;;;;;;23.40;5.43;;;;;;;8.22;100.00;99985.59;5286847;28;20067;-69
2023/03/13 01:13:17;;;;;;;19.67;5.53;;;;;;;8.27;100.00;99977.25;5289572;28;20027;-69
2023/03/13 01:15:48;;;;;;;26.58;6.68;;;;;;;8.27;100.00;99971.94;5287201;28;20059;-69
2023/03/13 01:18:19;;;;;;;29.55;6.60;;;;;;;8.33;100.00;99965.28;5288997;28;20036;-69
2023/03/13 01:20:52;;;;;;;19.38;5.75;;;;;;;8.35;100.00;99961.53;5284302;28;20028;-69
2023/03/13 01:23:23;;;;;;;17.48;5.93;;;;;;;8.36;100.00;99976.53;5285997;28;20034;-69
2023/03/13 01:25:55;;;;;;;24.65;6.75;;;;;;;8.48;100.00;99947.28;5284952;28;20486;-70
2023/03/13 01:28:27;;;;;;;26.23;6.70;;;;;;;8.39;100.00;99933.72;5289301;28;20119;-70
2023/03/13 01:30:59;;;;;;;25.60;6.30;;;;;;;8.41;100.00;99929.16;5282971;28;20040;-69
2023/03/13 01:33:30;;;;;;;21.30;6.10;;;;;;;8.50;100.00;99934.69;5282898;28;20030;-70
2023/03/13 01:36:03;;;;;;;19.80;6.25;;;;;;;8.50;100.00;99937.38;5283297;28;20037;-69
2023/03/13 01:38:34;;;;;;;16.70;5.72;;;;;;;8.47;100.00;99930.47;5284849;28;20209;-69
2023/03/13 01:41:09;;;;;;;15.55;5.93;;;;;;;8.53;100.00;99927.28;5284630;28;20024;-69
2023/03/13 01:43:43;;;;;;;22.85;5.75;;;;;;;8.55;100.00;99920.06;5285501;28;20038;-69
2023/03/13 01:46:28;;;;;;;26.25;7.95;;;;;;;8.58;100.00;99922.44;5289263;28;20525;-69
2023/03/13 01:49:06;;;;;;;18.35;5.75;;;;;;;8.61;100.00;99916.03;5286045;28;20036;-68
2023/03/13 01:51:42;;;;;;;18.00;5.40;;;;;;;8.62;100.00;99909.75;5282272;28;20035;-68
2023/03/13 01:54:20;;;;;;;16.15;5.97;;;;;;;8.62;100.00;99901.75;5282159;28;20526;-68
2023/03/13 01:57:03;;;;;;;16.83;5.53;;;;;;;8.71;100.00;99902.81;5283308;28;20122;-68
2023/03/13 02:00:03;;;;;;;16.73;4.97;;;;;;;8.72;100.00;99897.34;5282204;28;20107;-68
2023/03/13 02:02:37;;;;;;;18.95;5.28;;;;;;;8.77;100.00;99881.88;5286097;28;20103;-68
2023/03/13 02:05:08;;;;;;;18.98;4.95;;;;;;;8.82;100.00;99869.03;5284817;28;20900;-68
2023/03/13 02:07:44;;;;;;;12.13;5.20;;;;;;;8.84;100.00;99868.91;5283210;28;20119;-68
2023/03/13 02:10:16;;;;;;;12.35;4.20;;;;;;;8.84;100.00;99855.59;5281756;28;20028;-68
2023/03/13 02:12:48;;;;;;;14.02;4.50;;;;;;;8.91;100.00;99855.91;5287216;28;20432;-68
2023/03/13 02:15:22;;;;;;;15.02;4.85;;;;;;;8.93;100.00;99840.66;5281663;28;20036;-68
2023/03/13 02:17:54;;;;;;;15.77;4.45;;;;;;;8.94;100.00;99835.22;5285081;28;20036;-68
2023/03/13 02:20:26;;;;;;;16.00;5.03;;;;;;;8.99;100.00;99832.13;5282378;28;20024;-68
2023/03/13 02:23:31;;;;;;;15.63;5.25;;;;;;;9.00;100.00;99813.38;5281956;28;20024;-68
2023/03/13 02:26:03;;;;;;;;;;;;;;;9.02;100.00;99800.78;5274461;28;20903;-68
2023/03/13 02:28:38;;;;;;;15.00;5.03;;;;;;;9.03;100.00;99796.31;5284119;28;20067;-68
2023/03/13 02:31:09;;;;;;;17.17;5.68;;;;;;;9.10;100.00;99797.47;5282794;28;20118;-68
2023/03/13 02:33:42;;;;;;;16.10;5.70;;;;;;;9.12;100.00;99802.66;5283859;28;20035;-68
2023/03/13 02:36:15;;;;;;;19.67;6.63;;;;;;;9.13;100.00;99802.53;5283089;28;20119;-68
2023/03/13 02:38:55;;;;;;;16.52;6.53;;;;;;;9.15;100.00;99797.91;5285117;28;20130;-68
2023/03/13 02:41:27;;;;;;;13.20;5.95;;;;;;;9.15;100.00;99805.91;5286110;28;20020;-68
2023/03/13 02:43:58;;;;;;;15.30;6.40;;;;;;;9.17;100.00;99789.81;5282351;28;20142;-68
2023/03/13 02:46:31;;;;;;;16.42;6.68;;;;;;;9.23;100.00;99794.59;5281937;28;20620;-68
2023/03/13 02:49:25;;;;;;;16.95;6.47;;;;;;;9.27;100.00;99803.16;5282225;28;20044;-68
2023/03/13 02:52:12;;;;;;;15.75;6.35;;;;;;;9.29;100.00;99791.38;5281113;28;20032;-68
2023/03/13 02:54:46;;;;;;;14.57;7.05;;;;;;;9.31;100.00;99785.94;5278565;28;20367;-68
2023/03/13 02:57:17;;;;;;;13.68;6.70;;;;;;;9.35;100.00;99796.16;5284665;28;20062;-68
2023/03/13 02:59:49;;;;;;;14.52;7.45;;;;;;;9.37;100.00;99790.69;5282055;28;20106;-69
2023/03/13 03:02:21;;;;;;;14.15;7.63;;;;;;;9.42;100.00;99786.66;5281090;28;20031;-68
2023/03/13 03:04:52;;;;;;;17.10;7.22;;;;;;;9.46;100.00;99797.88;5280330;28;20028;-69
2023/03/13 03:07:24;;;;;;;10.93;7.22;;;;;;;9.48;100.00;99790.59;5283280;28;20042;-68
2023/03/13 03:09:55;;;;;;;16.90;7.03;;;;;;;9.48;100.00;99795.09;5280186;28;20080;-68
2023/03/13 03:12:27;;;;;;;13.30;7.13;;;;;;;9.56;100.00;99800.56;5279931;28;20115;-69
2023/03/13 03:14:58;;;;;;;14.73;6.90;;;;;;;9.56;100.00;99800.56;5287925;28;20585;-69
2023/03/13 03:17:29;;;;;;;17.02;7.88;;;;;;;9.59;100.00;99794.97;5284304;28;20565;-69
2023/03/13 03:20:01;;;;;;;12.98;7.90;;;;;;;9.61;100.00;99795.69;5282549;28;20077;-69
2023/03/13 03:22:33;;;;;;;11.73;6.82;;;;;;;9.69;100.00;99803.81;5282089;28;20021;-68
2023/03/13 03:25:05;;;;;;;14.07;7.43;;;;;;;9.68;100.00;99801.28;5285457;28;20034;-68
2023/03/13 03:27:37;;;;;;;11.80;6.78;;;;;;;9.71;100.00;99790.38;5285361;28;20031;-69
2023/03/13 03:30:09;;;;;;;12.93;7.15;;;;;;;9.75;100.00;99789.09;5286155;28;20048;-68
2023/03/13 03:32:40;;;;;;;15.05;8.57;;;;;;;9.72;100.00;99776.91;5284521;28;20085;-68
2023/03/13 03:35:11;;;;;;;12.70;7.28;;;;;;;9.76;100.00;99783.66;5284475;28;20649;-69
2023/03/13 03:37:43;;;;;;;11.48;6.97;;;;;;;9.78;100.00;99784.34;5283170;28;20541;-69
2023/03/13 03:40:14;;;;;;;14.60;7.85;;;;;;;9.80;100.00;99781.56;5280311;28;20034;-69
2023/03/13 03:42:46;;;;;;;12.05;7.53;;;;;;;9.84;100.00;99780.28;5280705;28;20142;-69
2023/03/13 03:45:17;;;;;;;13.77;8.05;;;;;;;9.88;100.00;99781.69;5280684;28;20864;-69
2023/03/13 03:47:48;;;;;;;11.82;7.88;;;;;;;9.87;100.00;99776.50;5284783;28;20113;-68
2023/03/13 03:50:20;;;;;;;14.43;7.95;;;;;;;9.88;100.00;99779.03;5278963;28;20035;-68
2023/03/13 03:52:51;;;;;;;13.38;7.78;;;;;;;9.91;100.00;99781.38;5282455;28;20032;-68
2023/03/13 03:55:22;;;;;;;15.27;8.73;;;;;;;9.93;100.00;99782.13;5276534;28;20059;-68
2023/03/13 03:57:54;;;;;;;15.32;8.05;;;;;;;9.94;100.00;99775.78;5281157;28;20288;-68
2023/03/13 04:00:26;;;;;;;14.68;8.63;;;;;;;9.96;100.00;99776.50;5280109;28;20039;-68
2023/03/13 04:02:57;;;;;;;15.48;9.40;;;;;;;10.09;100.00;99775.41;5277122;28;20031;-68
2023/03/13 04:05:29;;;;;;;16.08;8.98;;;;;;;10.02;100.00;99761.78;5283248;28;20492;-69
2023/03/13 04:08:00;;;;;;;15.75;8.95;;;;;;;10.06;100.00;99773.00;5279181;28;20774;-68
2023/03/13 04:10:32;;;;;;;17.58;8.75;;;;;;;10.06;100.00;99765.84;5283417;28;20035;-68
2023/03/13 04:13:03;;;;;;;16.63;8.88;;;;;;;10.09;100.00;99768.22;5286330;28;20469;-68
2023/03/13 04:15:36;;;;;;;14.32;9.27;;;;;;;10.15;100.00;99774.81;5281265;28;20492;-69
2023/03/13 04:18:08;;;;;;;16.00;9.35;;;;;;;10.15;100.00;99766.81;5284682;28;20046;-68
2023/03/13 04:20:39;;;;;;;15.70;9.05;;;;;;;10.23;100.00;99766.13;5283447;28;20530;-68
2023/03/13 04:23:10;;;;;;;12.05;8.00;;;;;;;10.18;100.00;99746.06;5283800;28;20389;-68
2023/03/13 04:25:41;;;;;;;12.70;7.90;;;;;;;10.19;100.00;99736.22;5283550;28;20076;-69
2023/03/13 04:28:13;;;;;;;11.85;7.43;;;;;;;10.16;100.00;99732.03;5284688;28;20032;-68
2023/03/13 04:30:44;;;;;;;11.75;6.85;;;;;;;10.33;100.00;99726.97;5289540;28;20029;-68
2023/03/13 04:33:15;;;;;;;13.32;7.72;;;;;;;10.34;100.00;99726.84;5291223;28;20035;-69
2023/03/13 04:35:47;;;;;;;14.93;7.15;;;;;;;10.40;100.00;99723.59;5299471;28;20080;-68
2023/03/13 04:38:18;;;;;;;11.40;7.00;;;;;;;10.39;100.00;99708.59;5293763;28;20110;-68
2023/03/13 04:40:49;;;;;;;13.32;7.00;;;;;;;10.35;100.00;99720.50;5286701;28;20036;-68
2023/03/13 04:43:20;;;;;;;12.10;6.78;;;;;;;10.37;100.00;99701.69;5285355;28;20032;-68
2023/03/13 04:45:55;;;;;;;9.85;6.85;;;;;;;10.42;100.00;99712.78;5289151;28;20066;-68
2023/03/13 04:48:26;;;;;;;12.48;7.00;;;;;;;10.43;100.00;99700.28;5291249;28;20077;-68
2023/03/13 04:50:57;;;;;;;11.02;6.38;;;;;;;10.44;100.00;99693.97;5291069;28;20032;-68
2023/03/13 04:53:28;;;;;;;12.07;5.93;;;;;;;10.46;100.00;99695.50;5294445;28;20110;-72
2023/03/13 04:56:00;;;;;;;8.90;5.80;;;;;;;10.50;100.00;99702.22;5298860;28;20040;-68
2023/03/13 04:58:31;;;;;;;10.60;6.38;;;;;;;10.52;100.00;99696.75;5294344;28;20500;-68
2023/03/13 05:01:02;;;;;;;10.55;6.13;;;;;;;10.54;100.00;99687.63;5283413;28;20486;-68
2023/03/13 05:03:34;;;;;;;10.32;5.75;;;;;;;10.62;100.00;99694.88;5286815;28;20032;-68
2023/03/13 05:06:05;;;;;;;8.85;5.55;;;;;;;10.62;100.00;99684.22;5289898;28;20024;-69
2023/03/13 05:08:37;;;;;;;9.43;5.40;;;;;;;10.66;100.00;99674.97;5291196;28;20020;-68
2023/03/13 05:11:08;;;;;;;8.07;4.95;;;;;;;10.68;100.00;99681.00;5285638;28;20047;-69
2023/03/13 05:13:39;;;;;;;10.25;5.35;;;;;;;10.70;100.00;99683.47;5293450;28;20092;-68
2023/03/13 05:16:11;;;;;;;9.15;4.50;;;;;;;10.69;100.00;99684.47;5296118;28;20050;-68
2023/03/13 05:18:42;;;;;;;8.48;5.03;;;;;;;10.72;100.00;99685.03;5285683;28;20039;-69
2023/03/13 05:21:13;;;;;;;12.55;5.03;;;;;;;10.77;100.00;99680.06;5297051;28;20291;-69
2023/03/13 05:23:44;;;;;;;10.70;4.78;;;;;;;10.76;100.00;99686.41;5301027;28;20111;-69
2023/03/13 05:26:16;;;;;;;6.32;4.03;;;;;;;10.82;100.00;99668.16;5293895;28;20059;-68
2023/03/13 05:28:47;;;;;;;8.20;4.75;;;;;;;10.78;100.00;99660.44;5282334;28;20052;-69
2023/03/13 05:31:18;;;;;;;8.45;4.15;;;;;;;10.77;100.00;99663.25;5281410;28;20028;-69
2023/03/13 05:33:49;;;;;;;8.57;4.05;;;;;;;10.74;100.00;99664.38;5281420;28;20032;-69
2023/03/13 05:36:21;;;;;;;9.02;4.50;;;;;;;10.72;100.00;99657.50;5297924;28;20089;-69
2023/03/13 05:38:52;;;;;;;9.85;4.60;;;;;;;10.76;100.00;99662.41;5289979;28;20394;-69
2023/03/13 05:41:23;;;;;;;11.45;4.78;;;;;;;10.80;100.00;99654.94;5292137;28;20035;-69
2023/03/13 05:43:55;;;;;;;8.60;4.57;;;;;;;10.86;100.00;99667.69;5292535;28;20154;-69
2023/03/13 05:46:26;;;;;;;7.32;4.63;;;;;;;10.86;100.00;99650.84;5296787;28;20036;-70
2023/03/13 05:48:57;;;;;;;8.52;3.90;;;;;;;10.87;100.00;99669.34;5293641;28;20020;-70
2023/03/13 05:51:28;;;;;;;8.48;4.13;;;;;;;10.90;100.00;99661.06;5287606;28;20581;-69
2023/03/13 05:54:00;;;;;;;9.80;3.97;;;;;;;10.85;100.00;99662.50;5287665;28;20502;-69
2023/03/13 05:56:31;;;;;;;9.85;4.43;;;;;;;10.85;100.00;99658.00;5298323;28;20020;-69
2023/03/13 05:59:02;;;;;;;8.07;3.67;;;;;;;10.87;100.00;99658.69;5295421;28;20538;-69
2023/03/13 06:01:33;;;;;;;8.52;4.03;;;;;;;10.86;100.00;99651.69;5280132;28;20028;-69
2023/03/13 06:04:05;;;;;;;9.73;4.10;;;;;;;10.91;100.00;99648.56;5300310;28;20032;-69
2023/03/13 06:06:36;;;;;;;9.02;3.80;;;;;;;10.91;100.00;99667.22;5296357;28;20541;-69
2023/03/13 06:09:10;;;;;;;7.75;3.50;;;;;;;10.90;100.00;99658.41;5300514;28;20024;-69
2023/03/13 06:11:41;;;;;;;9.70;4.45;;;;;;;10.87;100.00;99682.69;5310422;28;20036;-69
2023/03/13 06:14:13;;;;;;;8.75;3.67;;;;;;;10.95;100.00;99671.31;5291018;28;20102;-68
2023/03/13 06:16:44;;;;;;;10.30;4.03;;;;;;;10.95;100.00;99648.13;5296543;28;20027;-71
2023/03/13 06:19:15;;;;;;;11.40;3.90;;;;;;;10.99;100.00;99624.66;5289982;28;20029;-71
2023/03/13 06:21:47;;;;;;;9.90;3.70;;;;;;;10.96;100.00;99641.78;5295528;28;20085;-80
2023/03/13 06:24:18;;;;;;;11.60;3.97;;;;;;;10.97;100.00;99640.81;5294602;28;20028;-81
2023/03/13 06:26:50;;;;;;;11.02;3.53;;;;;;;11.01;100.00;99637.81;5296824;28;20048;-66
2023/03/13 06:29:23;;;;;;;7.32;3.60;;;;;;;10.95;100.00;99637.44;5300389;28;20080;-71
2023/03/13 06:31:54;;;;;;;8.52;3.63;;;;;;;11.00;100.00;99647.66;5298150;28;20128;-69
2023/03/13 06:34:25;;;;;;;8.10;3.70;;;;;;;11.00;100.00;99634.31;5285695;27;20023;-69
2023/03/13 06:36:57;;;;;;;8.95;3.65;;;;;;;11.01;100.00;99645.81;5299222;28;20538;-69
2023/03/13 06:39:29;;;;;;;11.10;3.88;;;;;;;11.02;100.00;99645.69;5286004;28;20019;-69
2023/03/13 06:42:00;;;;;;;9.75;3.25;;;;;;;11.08;100.00;99641.56;5282951;28;20209;-69
2023/03/13 06:44:31;;;;;;;7.88;3.15;;;;;;;11.06;100.00;99640.88;5287946;28;20031;-69
2023/03/13 06:47:03;;;;;;;13.10;3.75;;;;;;;11.07;100.00;99632.75;5292872;28;20486;-69
2023/03/13 06:49:34;;;;;;;8.10;2.92;;;;;;;11.07;100.00;99648.75;5293252;28;20112;-70
2023/03/13 06:52:06;;;;;;;10.43;3.85;;;;;;;11.12;100.00;99642.94;5293814;28;20036;-70
2023/03/13 06:54:37;;;;;;;9.63;3.67;;;;;;;11.14;100.00;99635.63;5293493;28;20048;-69
2023/03/13 06:57:08;;;;;;;8.77;3.40;;;;;;;11.16;100.00;99639.84;5293386;28;20142;-69
2023/03/13 06:59:39;;;;;;;7.70;3.20;;;;;;;11.18;100.00;99626.34;5292536;28;20055;-69
2023/03/13 07:02:11;;;;;;;10.55;3.63;;;;;;;11.23;100.00;99633.91;5289999;28;20034;-69
2023/03/13 07:04:43;;;;;;;9.73;3.20;;;;;;;11.22;100.00;99627.72;5288659;28;20028;-69
2023/03/13 07:07:14;;;;;;;9.63;3.53;;;;;;;11.29;100.00;99630.63;5291079;28;20086;-69
2023/03/13 07:09:45;;;;;;;7.65;3.13;;;;;;;11.34;100.00;99631.00;5290130;28;20561;-69
2023/03/13 07:12:16;;;;;;;10.18;3.20;;;;;;;11.37;100.00;99630.69;5293455;28;20034;-69
2023/03/13 07:14:48;;;;;;;13.00;3.72;;;;;;;11.39;100.00;99628.72;5290722;28;20031;-70
2023/03/13 07:17:19;;;;;;;10.77;3.72;;;;;;;11.41;100.00;99620.53;5295067;28;20038;-69
2023/03/13 07:19:50;;;;;;;11.60;3.47;;;;;;;11.38;100.00;99613.69;5287143;28;20034;-69
2023/03/13 07:22:21;;;;;;;10.32;3.05;;;;;;;11.38;100.00;99609.16;5291865;28;20020;-69
2023/03/13 07:24:53;;;;;;;10.27;3.15;;;;;;;11.42;100.00;99612.38;5288807;28;20496;-69
2023/03/13 07:27:24;;;;;;;9.20;3.28;;;;;;;11.46;100.00;99605.72;5290848;28;20498;-69
2023/03/13 07:29:55;;;;;;;8.23;2.88;;;;;;;11.45;100.00;99613.91;5292839;28;20032;-69
2023/03/13 07:32:31;;;;;;;9.75;3.20;;;;;;;11.48;100.00;99605.59;5285805;28;20035;-69
2023/03/13 07:35:03;;;;;;;9.43;3.17;;;;;;;11.51;100.00;99616.81;5290662;28;20032;-69
2023/03/13 07:37:34;;;;;;;9.50;3.08;;;;;;;11.54;100.00;99613.84;5285071;28;20035;-69
2023/03/13 07:40:08;;;;;;;9.63;3.33;;;;;;;11.56;100.00;99619.00;5287036;28;20020;-69
2023/03/13 07:42:40;;;;;;;11.20;2.95;;;;;;;11.56;100.00;99614.53;5288406;28;20032;-69
2023/03/13 07:45:11;;;;;;;11.68;3.35;;;;;;;11.66;100.00;99629.59;5284373;28;20023;-69
2023/03/13 07:47:43;;;;;;;11.27;4.00;;;;;;;11.64;100.00;99613.75;5287286;28;20039;-69
2023/03/13 07:50:14;;;;;;;9.23;3.20;;;;;;;11.64;100.00;99626.25;5289488;28;20077;-69
2023/03/13 07:52:45;;;;;;;9.57;3.13;;;;;;;11.64;100.00;99626.25;5292731;28;20032;-69
2023/03/13 07:55:16;;;;;;;10.75;3.10;;;;;;;11.56;100.00;99627.00;5290361;28;20035;-69
2023/03/13 07:57:48;;;;;;;8.52;3.03;;;;;;;11.66;100.00;99626.94;5283536;28;20032;-69
2023/03/13 08:00:20;;;;;;;11.48;3.13;;;;;;;11.62;100.00;99623.75;5285828;28;20343;-70
2023/03/13 08:02:51;;;;;;;10.93;3.72;;;;;;;11.63;100.00;99620.06;5280856;28;20735;-69
2023/03/13 08:05:22;;;;;;;9.07;3.30;;;;;;;11.68;100.00;99612.44;5287334;28;20106;-70
2023/03/13 08:07:53;;;;;;;8.32;2.95;;;;;;;11.77;100.00;99619.53;5282497;28;20036;-70
2023/03/13 08:10:25;;;;;;;7.13;2.97;;;;;;;11.84;100.00;99611.72;5290456;28;20120;-70
2023/03/13 08:12:56;;;;;;;6.97;2.72;;;;;;;11.88;100.00;99607.72;5288096;28;20470;-69
2023/03/13 08:15:27;;;;;;;8.77;3.30;;;;;;;11.93;100.00;99597.44;5287563;28;20214;-70
2023/03/13 08:17:59;;;;;;;9.30;3.38;;;;;;;12.00;100.00;99586.94;5287798;28;20078;-69
2023/03/13 08:20:30;;;;;;;9.48;3.38;;;;;;;12.04;100.00;99580.31;5290180;28;20032;-70
2023/03/13 08:23:01;;;;;;;9.30;3.13;;;;;;;12.05;100.00;99597.19;5283048;28;20028;-69
2023/03/13 08:25:32;;;;;;;9.88;3.10;;;;;;;12.10;100.00;99573.47;5283040;28;20044;-69
2023/03/13 08:28:04;;;;;;;7.88;2.85;;;;;;;12.13;100.00;99598.06;5286588;28;20035;-79
2023/03/13 08:30:35;;;;;;;7.03;2.70;;;;;;;12.15;100.00;99582.69;5284097;28;20058;-79
2023/03/13 08:33:06;;;;;;;7.25;2.80;;;;;;;12.21;100.00;99583.91;5286711;28;20055;-79
2023/03/13 08:35:37;;;;;;;6.57;2.75;;;;;;;12.24;100.00;99585.44;5287773;28;20454;-79
2023/03/13 08:38:09;;;;;;;8.68;2.40;;;;;;;12.31;100.00;99586.44;5292791;28;20024;-79
2023/03/13 08:40:40;;;;;;;7.07;2.92;;;;;;;12.40;100.00;99582.00;5289403;28;20054;-79
2023/03/13 08:43:11;;;;;;;5.95;2.53;;;;;;;12.42;100.00;99563.94;5290740;28;20038;-78
2023/03/13 08:45:43;;;;;;;11.15;2.65;;;;;;;12.49;100.00;99581.03;5286636;28;20506;-79
2023/03/13 08:48:14;;;;;;;10.32;2.60;;;;;;;12.54;100.00;99568.00;5293911;28;20732;-78
2023/03/13 08:50:45;;;;;;;5.53;1.70;;;;;;;12.56;100.00;99584.75;5289435;28;20752;-79
2023/03/13 08:53:17;;;;;;;6.63;2.45;;;;;;;12.60;100.00;99591.44;5296598;28;20024;-79
2023/03/13 08:55:52;;;;;;;7.47;2.20;;;;;;;12.67;100.00;99603.16;5293690;28;20059;-79
2023/03/13 08:58:24;;;;;;;6.20;2.30;;;;;;;12.72;100.00;99579.44;5289979;28;20019;-79
2023/03/13 09:01:07;;;;;;;4.15;2.00;;;;;;;12.75;100.00;99563.06;5291746;28;20039;-71
2023/03/13 09:03:40;;;;;;;9.20;3.05;;;;;;;12.77;100.00;99570.94;5291823;28;20402;-71
2023/03/13 09:06:12;;;;;;;7.88;2.00;;;;;;;12.85;100.00;99576.31;5292694;28;20057;-71
2023/03/13 09:08:43;;;;;;;8.50;2.30;;;;;;;12.91;100.00;99572.13;5294893;28;20032;-71
2023/03/13 09:11:17;;;;;;;11.80;2.85;;;;;;;12.87;100.00;99573.47;5291356;28;20041;-71
2023/03/13 09:13:50;;;;;;;6.22;2.20;;;;;;;12.87;100.00;99571.63;5293297;28;20027;-71
2023/03/13 09:16:24;;;;;;;7.22;2.75;;;;;;;12.93;100.00;99564.78;5293906;28;20032;-71
2023/03/13 09:18:57;;;;;;;5.63;2.38;;;;;;;12.88;100.00;99567.09;5288119;28;20039;-71
2023/03/13 09:21:31;;;;;;;6.72;2.58;;;;;;;12.91;100.00;99548.88;5290385;28;20062;-71
2023/03/13 09:24:02;;;;;;;6.78;2.28;;;;;;;12.94;100.00;99540.53;5295345;28;20031;-72
2023/03/13 09:26:33;;;;;;;7.35;2.55;;;;;;;12.98;100.00;99542.84;5291947;28;20044;-71
2023/03/13 09:29:05;;;;;;;9.02;2.88;;;;;;;13.03;100.00;99543.22;5292445;28;20056;-71
2023/03/13 09:31:37;;;;;;;8.48;2.78;;;;;;;13.04;100.00;99539.50;5294218;28;20028;-71
2023/03/13 09:34:08;;;;;;;7.05;2.42;;;;;;;13.05;100.00;99535.84;5292238;28;20144;-71
2023/03/13 09:36:39;;;;;;;5.90;2.75;;;;;;;13.08;100.00;99528.31;5289993;28;20036;-72
2023/03/13 09:39:11;;;;;;;9.15;2.80;;;;;;;13.10;100.00;99512.09;5296862;28;20020;-71
2023/03/13 09:41:56;;;;;;;7.10;2.30;;;;;;;13.15;100.00;99496.34;5291882;28;20112;-71
2023/03/13 09:44:36;;;;;;;5.50;2.13;;;;;;;13.20;100.00;99498.53;5292447;28;20025;-71
2023/03/13 09:47:40;;;;;;;4.88;1.90;;;;;;;13.27;100.00;99500.38;5292547;28;20048;-72
2023/03/13 09:50:23;;;;;;;5.93;2.05;;;;;;;13.43;100.00;99490.69;5309025;27;20035;-71
2023/03/13 09:53:02;;;;;;;6.43;2.53;;;;;;;13.49;100.00;99485.47;5288100;28;20119;-71
2023/03/13 09:55:36;;;;;;;6.18;1.85;;;;;;;13.57;100.00;99491.81;5289183;28;20028;-72
2023/03/13 09:58:15;;;;;;;;;;;;;;;13.63;100.00;99494.66;5294972;28;20069;-71
2023/03/13 10:00:53;;;;;;;4.55;1.67;;;;;;;13.72;100.00;99490.13;5285863;28;19916;-72
2023/03/13 10:03:28;;;;;;;5.00;1.73;;;;;;;13.76;100.00;99494.13;5283775;28;20681;-72
2023/03/13 10:06:15;;;;;;;4.05;1.70;;;;;;;13.85;100.00;99506.50;5289339;28;20111;-72
2023/03/13 10:08:47;;;;;;;5.05;1.60;;;;;;;13.87;100.00;99477.69;5290678;28;20028;-71
2023/03/13 10:11:36;;;;;;;5.20;1.60;;;;;;;13.96;100.00;99494.59;5292013;28;20035;-71
2023/03/13 10:14:19;;;;;;;5.32;1.80;;;;;;;14.05;100.00;99471.25;5287290;28;20055;-72
2023/03/13 10:16:59;;;;;;;5.15;1.50;;;;;;;14.13;100.00;99489.97;5291694;28;20383;-71
2023/03/13 10:19:36;;;;;;;6.78;2.00;;;;;;;14.14;100.00;99478.25;5288252;28;20032;-71
2023/03/13 10:22:14;;;;;;;3.83;1.70;;;;;;;14.18;100.00;99497.53;5285012;28;20485;-71
2023/03/13 10:24:59;;;;;;;4.05;1.40;;;;;;;14.24;100.00;99468.13;5290709;28;20027;-72
2023/03/13 10:27:30;;;;;;;5.50;1.80;;;;;;;14.26;100.00;99476.03;5291237;28;20052;-71
2023/03/13 10:30:01;;;;;;;4.30;1.58;;;;;;;14.25;100.00;99471.69;5296179;28;20028;-72
2023/03/13 10:32:32;;;;;;;4.15;1.70;;;;;;;14.29;100.00;99448.84;5291210;28;20066;-72
2023/03/13 10:35:04;;;;;;;3.75;1.55;;;;;;;14.26;100.00;99490.25;5285692;28;20158;-72
2023/03/13 10:37:41;;;;;;;4.68;1.45;;;;;;;14.35;100.00;99458.88;5291802;28;20027;-72
2023/03/13 10:40:18;;;;;;;4.20;1.20;;;;;;;14.38;100.00;99463.91;5292640;28;20031;-73
2023/03/13 10:42:52;;;;;;;3.50;1.25;;;;;;;14.45;100.00;99451.44;5290262;28;20032;-71
2023/03/13 10:45:24;;;;;;;3.20;1.55;;;;;;;14.48;100.00;99447.56;5294919;28;20427;-73
2023/03/13 10:48:02;;;;;;;4.35;1.50;;;;;;;14.54;100.00;99440.66;5292883;28;20024;-72
2023/03/13 10:50:34;;;;;;;5.28;1.42;;;;;;;14.52;100.00;99435.47;5289815;28;20077;-72
2023/03/13 10:53:21;;;;;;;4.78;1.35;;;;;;;14.54;100.00;99441.50;5288181;28;20528;-72
2023/03/13 10:55:54;;;;;;;3.45;1.30;;;;;;;14.58;100.00;99447.38;5286000;28;20403;-71
2023/03/13 10:58:44;;;;;;;4.97;1.58;;;;;;;14.59;100.00;99435.59;5292762;28;20061;-72
2023/03/13 11:01:20;;;;;;;4.80;1.38;;;;;;;14.65;100.00;99435.75;5294088;28;20506;-71
2023/03/13 11:03:54;;;;;;;5.13;1.88;;;;;;;14.65;100.00;99433.06;5292453;28;20028;-72
2023/03/13 11:06:33;;;;;;;4.15;1.20;;;;;;;14.68;100.00;99434.53;5292111;28;20023;-73
2023/03/13 11:09:13;;;;;;;3.58;1.30;;;;;;;14.69;100.00;99431.69;5288765;28;20032;-72
2023/03/13 11:11:49;;;;;;;5.07;1.20;;;;;;;14.77;100.00;99427.28;5293736;28;20084;-73
2023/03/13 11:14:23;;;;;;;6.03;1.50;;;;;;;14.71;100.00;99423.47;5294834;28;20063;-73
2023/03/13 11:17:13;;;;;;;2.47;1.20;;;;;;;14.76;100.00;99428.28;5285773;28;20027;-73
2023/03/13 11:20:25;;;;;;;4.72;1.60;;;;;;;14.80;100.00;99408.94;5291173;28;20394;-73
2023/03/13 11:23:38;;;;;;;6.13;1.02;;;;;;;14.86;100.00;99418.97;5291764;28;20402;-74
2023/03/13 11:26:23;;;;;;;5.50;1.40;;;;;;;14.90;100.00;99414.09;5284765;28;20043;-73
2023/03/13 11:29:16;;;;;;;6.05;1.25;;;;;;;14.93;100.00;99413.69;5289233;28;20057;-73
2023/03/13 11:31:57;;;;;;;5.15;1.10;;;;;;;15.01;100.00;99394.81;5289102;28;20402;-73
2023/03/13 11:34:55;;;;;;;5.40;1.38;;;;;;;15.08;100.00;99395.78;5289063;28;20039;-73
2023/03/13 11:37:31;;;;;;;4.40;1.30;;;;;;;14.99;100.00;99409.47;5287359;28;20027;-73
2023/03/13 11:40:27;;;;;;;5.00;1.38;;;;;;;15.04;100.00;99405.22;5283791;28;20027;-73
2023/03/13 11:43:12;;;;;;;4.93;1.20;;;;;;;15.02;100.00;99395.69;5290740;28;20085;-73
2023/03/13 11:46:04;;;;;;;5.93;1.70;;;;;;;15.04;100.00;99383.72;5289432;28;20028;-73
2023/03/13 11:48:54;;;;;;;4.13;1.65;;;;;;;15.03;100.00;99383.91;5282122;28;20024;-73
2023/03/13 11:51:44;;;;;;;4.35;1.15;;;;;;;15.11;100.00;99359.66;5282110;28;20039;-73
2023/03/13 11:54:36;;;;;;;4.75;1.38;;;;;;;15.08;100.00;99360.84;5287951;28;20360;-72